sensor_id;sensor_type;location;lat;lon;timestamp;P1;durP1;ratioP1;P2;durP2;ratioP2
9942;SDS011;5010;45.080;7.634;2023-04-25T00:02:20;4.40;;;1.90;;
9942;SDS011;5010;45.080;7.634;2023-04-25T00:04:49;7.97;;;2.80;;
9942;SDS011;5010;45.080;7.634;2023-04-25T00:07:17;4.80;;;2.75;;
9942;SDS011;5010;45.080;7.634;2023-04-25T00:09:44;4.50;;;2.63;;
9942;SDS011;5010;45.080;7.634;2023-04-25T00:12:11;5.43;;;2.85;;
9942;SDS011;5010;45.080;7.634;2023-04-25T00:14:38;5.30;;;2.90;;
9942;SDS011;5010;45.080;7.634;2023-04-25T00:17:05;4.28;;;3.08;;
9942;SDS011;5010;45.080;7.634;2023-04-25T00:19:32;4.10;;;2.45;;
9942;SDS011;5010;45.080;7.634;2023-04-25T00:22:01;4.25;;;2.80;;
9942;SDS011;5010;45.080;7.634;2023-04-25T00:24:28;4.10;;;2.33;;
9942;SDS011;5010;45.080;7.634;2023-04-25T00:26:55;4.35;;;2.85;;
9942;SDS011;5010;45.080;7.634;2023-04-25T00:29:22;4.35;;;2.50;;
9942;SDS011;5010;45.080;7.634;2023-04-25T00:31:49;4.53;;;3.75;;
9942;SDS011;5010;45.080;7.634;2023-04-25T00:34:16;4.57;;;3.75;;
9942;SDS011;5010;45.080;7.634;2023-04-25T00:36:43;4.45;;;3.30;;
9942;SDS011;5010;45.080;7.634;2023-04-25T00:39:11;4.60;;;2.70;;
9942;SDS011;5010;45.080;7.634;2023-04-25T00:41:38;4.53;;;2.70;;
9942;SDS011;5010;45.080;7.634;2023-04-25T00:44:05;4.60;;;3.28;;
9942;SDS011;5010;45.080;7.634;2023-04-25T00:46:36;4.20;;;2.90;;
9942;SDS011;5010;45.080;7.634;2023-04-25T00:49:03;4.53;;;2.53;;
9942;SDS011;5010;45.080;7.634;2023-04-25T00:51:30;4.65;;;2.58;;
9942;SDS011;5010;45.080;7.634;2023-04-25T00:53:59;4.13;;;2.45;;
9942;SDS011;5010;45.080;7.634;2023-04-25T00:56:27;4.55;;;3.00;;
9942;SDS011;5010;45.080;7.634;2023-04-25T00:58:54;3.72;;;2.25;;
9942;SDS011;5010;45.080;7.634;2023-04-25T01:01:22;4.45;;;2.88;;
9942;SDS011;5010;45.080;7.634;2023-04-25T01:03:49;4.32;;;2.55;;
9942;SDS011;5010;45.080;7.634;2023-04-25T01:06:17;4.10;;;2.47;;
9942;SDS011;5010;45.080;7.634;2023-04-25T01:08:44;4.25;;;2.25;;
9942;SDS011;5010;45.080;7.634;2023-04-25T01:11:11;4.70;;;2.60;;
9942;SDS011;5010;45.080;7.634;2023-04-25T01:13:40;3.80;;;2.10;;
9942;SDS011;5010;45.080;7.634;2023-04-25T01:16:07;4.80;;;2.28;;
9942;SDS011;5010;45.080;7.634;2023-04-25T01:18:34;3.90;;;1.90;;
9942;SDS011;5010;45.080;7.634;2023-04-25T01:21:04;5.07;;;2.60;;
9942;SDS011;5010;45.080;7.634;2023-04-25T01:23:34;3.80;;;2.13;;
9942;SDS011;5010;45.080;7.634;2023-04-25T01:26:02;4.20;;;2.63;;
9942;SDS011;5010;45.080;7.634;2023-04-25T01:28:29;4.85;;;2.40;;
9942;SDS011;5010;45.080;7.634;2023-04-25T01:30:57;5.10;;;2.38;;
9942;SDS011;5010;45.080;7.634;2023-04-25T01:33:25;4.85;;;2.78;;
9942;SDS011;5010;45.080;7.634;2023-04-25T01:35:52;5.68;;;2.80;;
9942;SDS011;5010;45.080;7.634;2023-04-25T01:38:20;4.10;;;2.70;;
9942;SDS011;5010;45.080;7.634;2023-04-25T01:40:47;3.92;;;2.25;;
9942;SDS011;5010;45.080;7.634;2023-04-25T01:43:17;3.90;;;2.20;;
9942;SDS011;5010;45.080;7.634;2023-04-25T01:45:44;4.53;;;2.20;;
9942;SDS011;5010;45.080;7.634;2023-04-25T01:48:12;4.30;;;2.13;;
9942;SDS011;5010;45.080;7.634;2023-04-25T01:50:40;4.93;;;2.30;;
9942;SDS011;5010;45.080;7.634;2023-04-25T01:53:08;8.02;;;2.78;;
9942;SDS011;5010;45.080;7.634;2023-04-25T01:55:38;5.10;;;2.70;;
9942;SDS011;5010;45.080;7.634;2023-04-25T01:58:05;4.60;;;3.10;;
9942;SDS011;5010;45.080;7.634;2023-04-25T02:00:34;4.90;;;2.53;;
9942;SDS011;5010;45.080;7.634;2023-04-25T02:03:03;4.90;;;3.30;;
9942;SDS011;5010;45.080;7.634;2023-04-25T02:05:33;5.43;;;3.28;;
9942;SDS011;5010;45.080;7.634;2023-04-25T02:08:01;5.00;;;2.58;;
9942;SDS011;5010;45.080;7.634;2023-04-25T02:10:29;3.80;;;2.30;;
9942;SDS011;5010;45.080;7.634;2023-04-25T02:12:58;5.18;;;3.17;;
9942;SDS011;5010;45.080;7.634;2023-04-25T02:15:25;5.03;;;3.10;;
9942;SDS011;5010;45.080;7.634;2023-04-25T02:17:52;4.30;;;2.20;;
9942;SDS011;5010;45.080;7.634;2023-04-25T02:20:20;4.15;;;2.30;;
9942;SDS011;5010;45.080;7.634;2023-04-25T02:22:48;4.18;;;2.80;;
9942;SDS011;5010;45.080;7.634;2023-04-25T02:25:15;4.00;;;2.30;;
9942;SDS011;5010;45.080;7.634;2023-04-25T02:27:42;3.85;;;1.85;;
9942;SDS011;5010;45.080;7.634;2023-04-25T02:30:12;4.40;;;2.30;;
9942;SDS011;5010;45.080;7.634;2023-04-25T02:32:39;3.90;;;2.20;;
9942;SDS011;5010;45.080;7.634;2023-04-25T02:35:06;3.90;;;2.10;;
9942;SDS011;5010;45.080;7.634;2023-04-25T02:37:34;4.55;;;2.20;;
9942;SDS011;5010;45.080;7.634;2023-04-25T02:40:02;3.80;;;2.03;;
9942;SDS011;5010;45.080;7.634;2023-04-25T02:42:30;4.35;;;2.55;;
9942;SDS011;5010;45.080;7.634;2023-04-25T02:44:56;3.90;;;2.33;;
9942;SDS011;5010;45.080;7.634;2023-04-25T02:47:25;4.60;;;2.10;;
9942;SDS011;5010;45.080;7.634;2023-04-25T02:49:51;4.75;;;2.70;;
9942;SDS011;5010;45.080;7.634;2023-04-25T02:52:18;5.10;;;2.42;;
9942;SDS011;5010;45.080;7.634;2023-04-25T02:54:46;4.10;;;2.38;;
9942;SDS011;5010;45.080;7.634;2023-04-25T02:57:13;5.40;;;2.50;;
9942;SDS011;5010;45.080;7.634;2023-04-25T02:59:39;4.00;;;2.20;;
9942;SDS011;5010;45.080;7.634;2023-04-25T03:02:06;4.53;;;2.78;;
9942;SDS011;5010;45.080;7.634;2023-04-25T03:04:34;4.60;;;2.45;;
9942;SDS011;5010;45.080;7.634;2023-04-25T03:07:01;5.55;;;3.13;;
9942;SDS011;5010;45.080;7.634;2023-04-25T03:09:28;5.03;;;2.78;;
9942;SDS011;5010;45.080;7.634;2023-04-25T03:11:55;4.40;;;3.45;;
9942;SDS011;5010;45.080;7.634;2023-04-25T03:14:22;5.00;;;2.83;;
9942;SDS011;5010;45.080;7.634;2023-04-25T03:16:49;6.50;;;3.00;;
9942;SDS011;5010;45.080;7.634;2023-04-25T03:19:16;5.60;;;4.68;;
9942;SDS011;5010;45.080;7.634;2023-04-25T03:21:45;4.50;;;3.15;;
9942;SDS011;5010;45.080;7.634;2023-04-25T03:24:11;4.20;;;3.10;;
9942;SDS011;5010;45.080;7.634;2023-04-25T03:26:39;4.43;;;2.70;;
9942;SDS011;5010;45.080;7.634;2023-04-25T03:29:05;3.97;;;2.70;;
9942;SDS011;5010;45.080;7.634;2023-04-25T03:31:32;4.50;;;2.90;;
9942;SDS011;5010;45.080;7.634;2023-04-25T03:33:59;4.22;;;2.80;;
9942;SDS011;5010;45.080;7.634;2023-04-25T03:36:26;5.13;;;2.53;;
9942;SDS011;5010;45.080;7.634;2023-04-25T03:38:54;4.25;;;2.60;;
9942;SDS011;5010;45.080;7.634;2023-04-25T03:41:21;4.15;;;2.95;;
9942;SDS011;5010;45.080;7.634;2023-04-25T03:43:48;4.25;;;2.95;;
9942;SDS011;5010;45.080;7.634;2023-04-25T03:46:15;3.85;;;2.30;;
9942;SDS011;5010;45.080;7.634;2023-04-25T03:48:41;5.45;;;3.30;;
9942;SDS011;5010;45.080;7.634;2023-04-25T03:51:08;4.32;;;3.42;;
9942;SDS011;5010;45.080;7.634;2023-04-25T03:53:35;4.50;;;3.10;;
9942;SDS011;5010;45.080;7.634;2023-04-25T03:56:04;5.47;;;3.50;;
9942;SDS011;5010;45.080;7.634;2023-04-25T03:58:31;4.90;;;3.30;;
9942;SDS011;5010;45.080;7.634;2023-04-25T04:00:58;4.40;;;3.65;;
9942;SDS011;5010;45.080;7.634;2023-04-25T04:03:25;4.60;;;3.20;;
9942;SDS011;5010;45.080;7.634;2023-04-25T04:05:52;4.32;;;2.90;;
9942;SDS011;5010;45.080;7.634;2023-04-25T04:08:19;4.30;;;3.35;;
9942;SDS011;5010;45.080;7.634;2023-04-25T04:10:45;5.10;;;3.67;;
9942;SDS011;5010;45.080;7.634;2023-04-25T04:13:14;4.30;;;3.40;;
9942;SDS011;5010;45.080;7.634;2023-04-25T04:15:40;4.18;;;2.75;;
9942;SDS011;5010;45.080;7.634;2023-04-25T04:18:07;4.13;;;2.72;;
9942;SDS011;5010;45.080;7.634;2023-04-25T04:20:34;4.38;;;2.72;;
9942;SDS011;5010;45.080;7.634;2023-04-25T04:23:01;4.85;;;3.05;;
9942;SDS011;5010;45.080;7.634;2023-04-25T04:25:30;5.70;;;3.35;;
9942;SDS011;5010;45.080;7.634;2023-04-25T04:27:57;5.40;;;3.97;;
9942;SDS011;5010;45.080;7.634;2023-04-25T04:30:27;4.40;;;2.70;;
9942;SDS011;5010;45.080;7.634;2023-04-25T04:32:56;4.10;;;3.00;;
9942;SDS011;5010;45.080;7.634;2023-04-25T04:35:23;4.00;;;2.55;;
9942;SDS011;5010;45.080;7.634;2023-04-25T04:37:51;4.30;;;2.78;;
9942;SDS011;5010;45.080;7.634;2023-04-25T04:40:18;5.05;;;3.10;;
9942;SDS011;5010;45.080;7.634;2023-04-25T04:42:45;4.22;;;3.30;;
9942;SDS011;5010;45.080;7.634;2023-04-25T04:45:13;4.20;;;2.40;;
9942;SDS011;5010;45.080;7.634;2023-04-25T04:47:42;4.40;;;2.78;;
9942;SDS011;5010;45.080;7.634;2023-04-25T04:50:10;4.10;;;2.80;;
9942;SDS011;5010;45.080;7.634;2023-04-25T04:52:38;4.65;;;2.83;;
9942;SDS011;5010;45.080;7.634;2023-04-25T04:55:05;4.32;;;2.75;;
9942;SDS011;5010;45.080;7.634;2023-04-25T04:57:33;4.43;;;3.35;;
9942;SDS011;5010;45.080;7.634;2023-04-25T05:00:00;4.20;;;3.17;;
9942;SDS011;5010;45.080;7.634;2023-04-25T05:02:28;5.30;;;3.13;;
9942;SDS011;5010;45.080;7.634;2023-04-25T05:04:56;4.07;;;2.80;;
9942;SDS011;5010;45.080;7.634;2023-04-25T05:07:23;5.00;;;3.65;;
9942;SDS011;5010;45.080;7.634;2023-04-25T05:09:50;6.68;;;3.13;;
9942;SDS011;5010;45.080;7.634;2023-04-25T05:12:17;4.82;;;2.78;;
9942;SDS011;5010;45.080;7.634;2023-04-25T05:14:43;4.30;;;3.10;;
9942;SDS011;5010;45.080;7.634;2023-04-25T05:17:10;3.85;;;2.28;;
9942;SDS011;5010;45.080;7.634;2023-04-25T05:19:38;3.88;;;2.50;;
9942;SDS011;5010;45.080;7.634;2023-04-25T05:22:07;4.75;;;3.20;;
9942;SDS011;5010;45.080;7.634;2023-04-25T05:24:34;4.80;;;3.30;;
9942;SDS011;5010;45.080;7.634;2023-04-25T05:27:01;4.00;;;2.40;;
9942;SDS011;5010;45.080;7.634;2023-04-25T05:29:29;4.10;;;2.40;;
9942;SDS011;5010;45.080;7.634;2023-04-25T05:31:56;4.93;;;3.00;;
9942;SDS011;5010;45.080;7.634;2023-04-25T05:34:23;4.30;;;3.40;;
9942;SDS011;5010;45.080;7.634;2023-04-25T05:36:51;4.80;;;3.35;;
9942;SDS011;5010;45.080;7.634;2023-04-25T05:39:19;4.10;;;2.83;;
9942;SDS011;5010;45.080;7.634;2023-04-25T05:41:46;5.35;;;4.00;;
9942;SDS011;5010;45.080;7.634;2023-04-25T05:44:12;4.43;;;3.25;;
9942;SDS011;5010;45.080;7.634;2023-04-25T05:46:40;5.20;;;3.05;;
9942;SDS011;5010;45.080;7.634;2023-04-25T05:49:07;4.30;;;3.65;;
9942;SDS011;5010;45.080;7.634;2023-04-25T05:51:34;4.40;;;2.60;;
9942;SDS011;5010;45.080;7.634;2023-04-25T05:54:01;4.65;;;3.10;;
9942;SDS011;5010;45.080;7.634;2023-04-25T05:56:30;4.47;;;2.70;;
9942;SDS011;5010;45.080;7.634;2023-04-25T05:58:57;4.80;;;3.58;;
9942;SDS011;5010;45.080;7.634;2023-04-25T06:01:24;4.35;;;2.40;;
9942;SDS011;5010;45.080;7.634;2023-04-25T06:03:51;5.60;;;3.55;;
9942;SDS011;5010;45.080;7.634;2023-04-25T06:06:18;4.20;;;2.80;;
9942;SDS011;5010;45.080;7.634;2023-04-25T06:08:45;4.30;;;3.70;;
9942;SDS011;5010;45.080;7.634;2023-04-25T06:11:12;5.10;;;2.90;;
9942;SDS011;5010;45.080;7.634;2023-04-25T06:13:40;5.65;;;3.38;;
9942;SDS011;5010;45.080;7.634;2023-04-25T06:16:07;4.00;;;2.60;;
9942;SDS011;5010;45.080;7.634;2023-04-25T06:18:37;5.25;;;3.30;;
9942;SDS011;5010;45.080;7.634;2023-04-25T06:21:04;4.07;;;3.45;;
9942;SDS011;5010;45.080;7.634;2023-04-25T06:23:31;4.90;;;4.47;;
9942;SDS011;5010;45.080;7.634;2023-04-25T06:25:58;4.60;;;4.07;;
9942;SDS011;5010;45.080;7.634;2023-04-25T06:28:25;4.57;;;3.00;;
9942;SDS011;5010;45.080;7.634;2023-04-25T06:30:54;4.20;;;3.10;;
9942;SDS011;5010;45.080;7.634;2023-04-25T06:33:21;4.70;;;2.92;;
9942;SDS011;5010;45.080;7.634;2023-04-25T06:35:49;4.30;;;3.50;;
9942;SDS011;5010;45.080;7.634;2023-04-25T06:38:16;8.52;;;3.33;;
9942;SDS011;5010;45.080;7.634;2023-04-25T06:40:43;5.95;;;4.20;;
9942;SDS011;5010;45.080;7.634;2023-04-25T06:43:09;4.65;;;3.30;;
9942;SDS011;5010;45.080;7.634;2023-04-25T06:45:36;9.02;;;3.97;;
9942;SDS011;5010;45.080;7.634;2023-04-25T06:48:05;4.53;;;3.85;;
9942;SDS011;5010;45.080;7.634;2023-04-25T06:50:32;5.18;;;4.03;;
9942;SDS011;5010;45.080;7.634;2023-04-25T06:53:00;5.53;;;5.03;;
9942;SDS011;5010;45.080;7.634;2023-04-25T06:55:27;4.97;;;3.60;;
9942;SDS011;5010;45.080;7.634;2023-04-25T06:57:55;5.85;;;3.95;;
9942;SDS011;5010;45.080;7.634;2023-04-25T07:00:21;4.75;;;3.17;;
9942;SDS011;5010;45.080;7.634;2023-04-25T07:02:48;5.00;;;4.25;;
9942;SDS011;5010;45.080;7.634;2023-04-25T07:05:17;5.28;;;3.38;;
9942;SDS011;5010;45.080;7.634;2023-04-25T07:07:43;5.35;;;5.13;;
9942;SDS011;5010;45.080;7.634;2023-04-25T07:10:10;5.22;;;4.90;;
9942;SDS011;5010;45.080;7.634;2023-04-25T07:12:37;5.55;;;3.60;;
9942;SDS011;5010;45.080;7.634;2023-04-25T07:15:05;6.53;;;3.72;;
9942;SDS011;5010;45.080;7.634;2023-04-25T07:17:35;4.60;;;3.50;;
9942;SDS011;5010;45.080;7.634;2023-04-25T07:20:02;5.53;;;4.20;;
9942;SDS011;5010;45.080;7.634;2023-04-25T07:22:35;4.80;;;3.70;;
9942;SDS011;5010;45.080;7.634;2023-04-25T07:25:02;9.65;;;4.35;;
9942;SDS011;5010;45.080;7.634;2023-04-25T07:27:30;5.20;;;3.20;;
9942;SDS011;5010;45.080;7.634;2023-04-25T07:29:58;8.52;;;3.10;;
9942;SDS011;5010;45.080;7.634;2023-04-25T07:32:25;5.53;;;5.20;;
9942;SDS011;5010;45.080;7.634;2023-04-25T07:34:52;5.95;;;4.47;;
9942;SDS011;5010;45.080;7.634;2023-04-25T07:37:19;4.25;;;3.75;;
9942;SDS011;5010;45.080;7.634;2023-04-25T07:39:47;11.00;;;4.05;;
9942;SDS011;5010;45.080;7.634;2023-04-25T07:42:14;8.35;;;4.10;;
9942;SDS011;5010;45.080;7.634;2023-04-25T07:44:41;6.22;;;3.78;;
9942;SDS011;5010;45.080;7.634;2023-04-25T07:47:08;5.82;;;3.00;;
9942;SDS011;5010;45.080;7.634;2023-04-25T07:49:37;10.55;;;3.80;;
9942;SDS011;5010;45.080;7.634;2023-04-25T07:52:04;5.65;;;3.50;;
9942;SDS011;5010;45.080;7.634;2023-04-25T07:54:32;10.80;;;3.60;;
9942;SDS011;5010;45.080;7.634;2023-04-25T07:57:00;5.18;;;2.85;;
9942;SDS011;5010;45.080;7.634;2023-04-25T07:59:27;5.63;;;3.95;;
9942;SDS011;5010;45.080;7.634;2023-04-25T08:01:54;4.78;;;2.90;;
9942;SDS011;5010;45.080;7.634;2023-04-25T08:04:22;7.00;;;3.55;;
9942;SDS011;5010;45.080;7.634;2023-04-25T08:06:50;6.30;;;4.63;;
9942;SDS011;5010;45.080;7.634;2023-04-25T08:09:17;7.35;;;4.78;;
9942;SDS011;5010;45.080;7.634;2023-04-25T08:11:44;4.50;;;3.92;;
9942;SDS011;5010;45.080;7.634;2023-04-25T08:14:13;5.30;;;5.00;;
9942;SDS011;5010;45.080;7.634;2023-04-25T08:16:40;6.65;;;3.90;;
9942;SDS011;5010;45.080;7.634;2023-04-25T08:19:07;7.40;;;4.05;;
9942;SDS011;5010;45.080;7.634;2023-04-25T08:21:34;7.03;;;4.38;;
9942;SDS011;5010;45.080;7.634;2023-04-25T08:24:01;5.20;;;3.88;;
9942;SDS011;5010;45.080;7.634;2023-04-25T08:26:27;6.03;;;3.67;;
9942;SDS011;5010;45.080;7.634;2023-04-25T08:28:55;6.10;;;4.10;;
9942;SDS011;5010;45.080;7.634;2023-04-25T08:31:23;5.72;;;3.70;;
9942;SDS011;5010;45.080;7.634;2023-04-25T08:33:50;9.45;;;3.22;;
9942;SDS011;5010;45.080;7.634;2023-04-25T08:36:17;7.90;;;3.58;;
9942;SDS011;5010;45.080;7.634;2023-04-25T08:38:45;5.45;;;3.45;;
9942;SDS011;5010;45.080;7.634;2023-04-25T08:41:11;7.15;;;3.00;;
9942;SDS011;5010;45.080;7.634;2023-04-25T08:43:41;5.32;;;3.35;;
9942;SDS011;5010;45.080;7.634;2023-04-25T08:46:08;5.18;;;2.90;;
9942;SDS011;5010;45.080;7.634;2023-04-25T08:48:39;4.78;;;3.58;;
9942;SDS011;5010;45.080;7.634;2023-04-25T08:51:08;6.03;;;3.25;;
9942;SDS011;5010;45.080;7.634;2023-04-25T08:53:41;9.32;;;3.75;;
9942;SDS011;5010;45.080;7.634;2023-04-25T08:56:11;5.10;;;4.10;;
9942;SDS011;5010;45.080;7.634;2023-04-25T08:58:42;7.07;;;3.60;;
9942;SDS011;5010;45.080;7.634;2023-04-25T09:01:11;6.55;;;3.17;;
9942;SDS011;5010;45.080;7.634;2023-04-25T09:03:39;5.95;;;3.72;;
9942;SDS011;5010;45.080;7.634;2023-04-25T09:06:06;5.82;;;3.70;;
9942;SDS011;5010;45.080;7.634;2023-04-25T09:08:35;11.38;;;3.53;;
9942;SDS011;5010;45.080;7.634;2023-04-25T09:11:03;7.60;;;4.20;;
9942;SDS011;5010;45.080;7.634;2023-04-25T09:13:30;5.95;;;4.45;;
9942;SDS011;5010;45.080;7.634;2023-04-25T09:15:57;6.40;;;3.50;;
9942;SDS011;5010;45.080;7.634;2023-04-25T09:18:25;5.03;;;3.10;;
9942;SDS011;5010;45.080;7.634;2023-04-25T09:20:55;4.90;;;2.90;;
9942;SDS011;5010;45.080;7.634;2023-04-25T09:23:22;4.82;;;3.15;;
9942;SDS011;5010;45.080;7.634;2023-04-25T09:25:50;4.45;;;3.33;;
9942;SDS011;5010;45.080;7.634;2023-04-25T09:28:22;4.70;;;3.35;;
9942;SDS011;5010;45.080;7.634;2023-04-25T09:30:54;5.28;;;3.33;;
9942;SDS011;5010;45.080;7.634;2023-04-25T09:33:26;7.05;;;3.15;;
9942;SDS011;5010;45.080;7.634;2023-04-25T09:36:01;5.68;;;3.97;;
9942;SDS011;5010;45.080;7.634;2023-04-25T09:38:29;6.75;;;3.45;;
9942;SDS011;5010;45.080;7.634;2023-04-25T09:40:57;8.75;;;4.05;;
9942;SDS011;5010;45.080;7.634;2023-04-25T09:43:25;4.78;;;3.40;;
9942;SDS011;5010;45.080;7.634;2023-04-25T09:45:53;6.95;;;4.00;;
9942;SDS011;5010;45.080;7.634;2023-04-25T09:48:23;4.93;;;3.42;;
9942;SDS011;5010;45.080;7.634;2023-04-25T09:51:04;5.68;;;4.85;;
9942;SDS011;5010;45.080;7.634;2023-04-25T09:53:33;5.18;;;4.60;;
9942;SDS011;5010;45.080;7.634;2023-04-25T09:56:01;6.55;;;3.50;;
9942;SDS011;5010;45.080;7.634;2023-04-25T09:58:31;5.32;;;3.78;;
9942;SDS011;5010;45.080;7.634;2023-04-25T10:00:59;5.82;;;4.40;;
9942;SDS011;5010;45.080;7.634;2023-04-25T10:03:27;5.47;;;4.57;;
9942;SDS011;5010;45.080;7.634;2023-04-25T10:05:57;8.10;;;5.10;;
9942;SDS011;5010;45.080;7.634;2023-04-25T10:08:30;5.15;;;4.90;;
9942;SDS011;5010;45.080;7.634;2023-04-25T10:11:00;5.10;;;4.35;;
9942;SDS011;5010;45.080;7.634;2023-04-25T10:13:28;7.10;;;3.55;;
9942;SDS011;5010;45.080;7.634;2023-04-25T10:15:56;4.70;;;3.70;;
9942;SDS011;5010;45.080;7.634;2023-04-25T10:18:24;4.80;;;3.10;;
9942;SDS011;5010;45.080;7.634;2023-04-25T10:20:53;7.82;;;4.00;;
9942;SDS011;5010;45.080;7.634;2023-04-25T10:23:20;5.53;;;3.55;;
9942;SDS011;5010;45.080;7.634;2023-04-25T10:25:49;4.75;;;3.42;;
9942;SDS011;5010;45.080;7.634;2023-04-25T10:28:17;4.70;;;3.60;;
9942;SDS011;5010;45.080;7.634;2023-04-25T10:30:57;5.70;;;4.18;;
9942;SDS011;5010;45.080;7.634;2023-04-25T10:33:34;8.82;;;5.32;;
9942;SDS011;5010;45.080;7.634;2023-04-25T10:36:10;5.40;;;3.85;;
9942;SDS011;5010;45.080;7.634;2023-04-25T10:38:38;5.15;;;3.50;;
9942;SDS011;5010;45.080;7.634;2023-04-25T10:41:07;9.10;;;3.85;;
9942;SDS011;5010;45.080;7.634;2023-04-25T10:43:38;5.38;;;3.22;;
9942;SDS011;5010;45.080;7.634;2023-04-25T10:46:12;5.50;;;3.65;;
9942;SDS011;5010;45.080;7.634;2023-04-25T10:48:44;4.00;;;2.40;;
9942;SDS011;5010;45.080;7.634;2023-04-25T10:51:16;9.55;;;4.07;;
9942;SDS011;5010;45.080;7.634;2023-04-25T10:53:44;5.40;;;3.15;;
9942;SDS011;5010;45.080;7.634;2023-04-25T10:56:13;5.43;;;3.60;;
9942;SDS011;5010;45.080;7.634;2023-04-25T10:58:44;6.95;;;4.20;;
9942;SDS011;5010;45.080;7.634;2023-04-25T11:01:12;4.45;;;3.55;;
9942;SDS011;5010;45.080;7.634;2023-04-25T11:03:40;4.82;;;4.50;;
9942;SDS011;5010;45.080;7.634;2023-04-25T11:06:10;5.63;;;3.92;;
9942;SDS011;5010;45.080;7.634;2023-04-25T11:08:47;4.90;;;4.20;;
9942;SDS011;5010;45.080;7.634;2023-04-25T11:11:17;5.55;;;5.25;;
9942;SDS011;5010;45.080;7.634;2023-04-25T11:13:47;5.28;;;4.90;;
9942;SDS011;5010;45.080;7.634;2023-04-25T11:16:14;5.00;;;4.78;;
9942;SDS011;5010;45.080;7.634;2023-04-25T11:18:42;6.38;;;4.57;;
9942;SDS011;5010;45.080;7.634;2023-04-25T11:21:09;5.68;;;4.68;;
9942;SDS011;5010;45.080;7.634;2023-04-25T11:23:36;5.32;;;4.82;;
9942;SDS011;5010;45.080;7.634;2023-04-25T11:26:03;4.40;;;3.63;;
9942;SDS011;5010;45.080;7.634;2023-04-25T11:28:32;5.70;;;3.88;;
9942;SDS011;5010;45.080;7.634;2023-04-25T11:30:59;4.80;;;3.45;;
9942;SDS011;5010;45.080;7.634;2023-04-25T11:33:25;8.15;;;4.53;;
9942;SDS011;5010;45.080;7.634;2023-04-25T11:35:53;4.50;;;4.13;;
9942;SDS011;5010;45.080;7.634;2023-04-25T11:38:21;5.32;;;3.80;;
9942;SDS011;5010;45.080;7.634;2023-04-25T11:40:51;5.35;;;3.80;;
9942;SDS011;5010;45.080;7.634;2023-04-25T11:43:19;5.18;;;3.97;;
9942;SDS011;5010;45.080;7.634;2023-04-25T11:45:49;6.20;;;4.15;;
9942;SDS011;5010;45.080;7.634;2023-04-25T11:48:17;5.65;;;3.45;;
9942;SDS011;5010;45.080;7.634;2023-04-25T11:50:44;6.00;;;3.95;;
9942;SDS011;5010;45.080;7.634;2023-04-25T11:53:11;5.85;;;4.03;;
9942;SDS011;5010;45.080;7.634;2023-04-25T11:55:38;5.65;;;4.32;;
9942;SDS011;5010;45.080;7.634;2023-04-25T11:58:06;4.60;;;3.53;;
9942;SDS011;5010;45.080;7.634;2023-04-25T12:00:33;5.47;;;3.60;;
9942;SDS011;5010;45.080;7.634;2023-04-25T12:03:03;7.20;;;4.72;;
9942;SDS011;5010;45.080;7.634;2023-04-25T12:05:30;5.38;;;3.45;;
9942;SDS011;5010;45.080;7.634;2023-04-25T12:07:58;5.35;;;3.58;;
9942;SDS011;5010;45.080;7.634;2023-04-25T12:10:37;6.93;;;4.78;;
9942;SDS011;5010;45.080;7.634;2023-04-25T12:13:17;4.53;;;3.15;;
9942;SDS011;5010;45.080;7.634;2023-04-25T12:15:45;6.07;;;5.35;;
9942;SDS011;5010;45.080;7.634;2023-04-25T12:18:14;4.70;;;4.20;;
9942;SDS011;5010;45.080;7.634;2023-04-25T12:20:45;5.25;;;3.40;;
9942;SDS011;5010;45.080;7.634;2023-04-25T12:23:12;6.35;;;3.55;;
9942;SDS011;5010;45.080;7.634;2023-04-25T12:25:39;4.55;;;3.80;;
9942;SDS011;5010;45.080;7.634;2023-04-25T12:28:10;4.75;;;4.35;;
9942;SDS011;5010;45.080;7.634;2023-04-25T12:30:57;5.32;;;4.20;;
9942;SDS011;5010;45.080;7.634;2023-04-25T12:33:26;5.30;;;4.50;;
9942;SDS011;5010;45.080;7.634;2023-04-25T12:35:54;5.43;;;4.47;;
9942;SDS011;5010;45.080;7.634;2023-04-25T12:38:22;5.47;;;4.20;;
9942;SDS011;5010;45.080;7.634;2023-04-25T12:40:50;5.55;;;5.22;;
9942;SDS011;5010;45.080;7.634;2023-04-25T12:43:17;5.30;;;3.92;;
9942;SDS011;5010;45.080;7.634;2023-04-25T12:45:44;4.95;;;4.63;;
9942;SDS011;5010;45.080;7.634;2023-04-25T12:48:13;4.40;;;3.35;;
9942;SDS011;5010;45.080;7.634;2023-04-25T12:50:41;4.80;;;4.55;;
9942;SDS011;5010;45.080;7.634;2023-04-25T12:53:09;4.80;;;4.13;;
9942;SDS011;5010;45.080;7.634;2023-04-25T12:55:36;5.20;;;4.05;;
9942;SDS011;5010;45.080;7.634;2023-04-25T12:58:03;5.57;;;4.18;;
9942;SDS011;5010;45.080;7.634;2023-04-25T13:00:30;5.35;;;4.03;;
9942;SDS011;5010;45.080;7.634;2023-04-25T13:02:57;6.15;;;4.40;;
9942;SDS011;5010;45.080;7.634;2023-04-25T13:05:25;4.90;;;4.13;;
9942;SDS011;5010;45.080;7.634;2023-04-25T13:07:53;5.00;;;3.90;;
9942;SDS011;5010;45.080;7.634;2023-04-25T13:10:20;4.85;;;3.88;;
9942;SDS011;5010;45.080;7.634;2023-04-25T13:12:47;4.43;;;3.72;;
9942;SDS011;5010;45.080;7.634;2023-04-25T13:15:14;5.68;;;3.30;;
9942;SDS011;5010;45.080;7.634;2023-04-25T13:17:41;4.20;;;2.85;;
9942;SDS011;5010;45.080;7.634;2023-04-25T13:20:08;4.57;;;2.75;;
9942;SDS011;5010;45.080;7.634;2023-04-25T13:22:36;4.57;;;3.72;;
9942;SDS011;5010;45.080;7.634;2023-04-25T13:25:06;4.55;;;3.30;;
9942;SDS011;5010;45.080;7.634;2023-04-25T13:27:35;5.03;;;3.50;;
9942;SDS011;5010;45.080;7.634;2023-04-25T13:30:03;6.10;;;4.00;;
9942;SDS011;5010;45.080;7.634;2023-04-25T13:32:32;8.30;;;3.40;;
9942;SDS011;5010;45.080;7.634;2023-04-25T13:35:01;5.32;;;3.85;;
9942;SDS011;5010;45.080;7.634;2023-04-25T13:37:28;4.60;;;4.10;;
9942;SDS011;5010;45.080;7.634;2023-04-25T13:39:58;5.47;;;4.82;;
9942;SDS011;5010;45.080;7.634;2023-04-25T13:42:26;5.80;;;3.88;;
9942;SDS011;5010;45.080;7.634;2023-04-25T13:44:53;4.90;;;4.38;;
9942;SDS011;5010;45.080;7.634;2023-04-25T13:47:20;4.72;;;4.32;;
9942;SDS011;5010;45.080;7.634;2023-04-25T13:49:48;4.75;;;3.88;;
9942;SDS011;5010;45.080;7.634;2023-04-25T13:52:15;5.10;;;4.72;;
9942;SDS011;5010;45.080;7.634;2023-04-25T13:54:41;6.57;;;5.75;;
9942;SDS011;5010;45.080;7.634;2023-04-25T13:57:08;4.70;;;4.20;;
9942;SDS011;5010;45.080;7.634;2023-04-25T13:59:37;5.00;;;4.35;;
9942;SDS011;5010;45.080;7.634;2023-04-25T14:02:05;5.38;;;4.25;;
9942;SDS011;5010;45.080;7.634;2023-04-25T14:04:32;4.80;;;3.25;;
9942;SDS011;5010;45.080;7.634;2023-04-25T14:07:00;5.40;;;3.45;;
9942;SDS011;5010;45.080;7.634;2023-04-25T14:09:27;5.25;;;3.90;;
9942;SDS011;5010;45.080;7.634;2023-04-25T14:11:54;4.97;;;4.10;;
9942;SDS011;5010;45.080;7.634;2023-04-25T14:14:21;5.18;;;4.35;;
9942;SDS011;5010;45.080;7.634;2023-04-25T14:16:50;4.68;;;3.70;;
9942;SDS011;5010;45.080;7.634;2023-04-25T14:19:19;4.68;;;3.80;;
9942;SDS011;5010;45.080;7.634;2023-04-25T14:21:46;4.50;;;3.92;;
9942;SDS011;5010;45.080;7.634;2023-04-25T14:24:13;4.85;;;3.97;;
9942;SDS011;5010;45.080;7.634;2023-04-25T14:26:40;5.13;;;3.50;;
9942;SDS011;5010;45.080;7.634;2023-04-25T14:29:08;4.88;;;3.60;;
9942;SDS011;5010;45.080;7.634;2023-04-25T14:31:37;6.75;;;4.00;;
9942;SDS011;5010;45.080;7.634;2023-04-25T14:34:06;9.25;;;3.30;;
9942;SDS011;5010;45.080;7.634;2023-04-25T14:36:33;4.93;;;3.00;;
9942;SDS011;5010;45.080;7.634;2023-04-25T14:39:02;5.20;;;4.22;;
9942;SDS011;5010;45.080;7.634;2023-04-25T14:41:30;4.82;;;4.20;;
9942;SDS011;5010;45.080;7.634;2023-04-25T14:43:57;4.75;;;4.35;;
9942;SDS011;5010;45.080;7.634;2023-04-25T14:46:24;4.50;;;3.42;;
9942;SDS011;5010;45.080;7.634;2023-04-25T14:48:51;4.80;;;4.30;;
9942;SDS011;5010;45.080;7.634;2023-04-25T14:51:19;5.00;;;4.25;;
9942;SDS011;5010;45.080;7.634;2023-04-25T14:53:46;6.05;;;4.50;;
9942;SDS011;5010;45.080;7.634;2023-04-25T14:56:13;5.40;;;5.10;;
9942;SDS011;5010;45.080;7.634;2023-04-25T14:58:40;5.70;;;4.30;;
9942;SDS011;5010;45.080;7.634;2023-04-25T15:01:07;5.40;;;5.07;;
9942;SDS011;5010;45.080;7.634;2023-04-25T15:03:34;5.15;;;4.50;;
9942;SDS011;5010;45.080;7.634;2023-04-25T15:06:01;6.18;;;5.88;;
9942;SDS011;5010;45.080;7.634;2023-04-25T15:08:29;5.90;;;3.88;;
9942;SDS011;5010;45.080;7.634;2023-04-25T15:10:56;12.30;;;4.25;;
9942;SDS011;5010;45.080;7.634;2023-04-25T15:13:23;5.38;;;4.00;;
9942;SDS011;5010;45.080;7.634;2023-04-25T15:15:50;5.85;;;3.22;;
9942;SDS011;5010;45.080;7.634;2023-04-25T15:18:19;5.20;;;4.25;;
9942;SDS011;5010;45.080;7.634;2023-04-25T15:20:47;4.60;;;3.80;;